sensor_id;sensor_type;location;lat;lon;timestamp;P1;durP1;ratioP1;P2;durP2;ratioP2
27375;SDS011;14844;51.302;6.354;2023-11-19T00:00:05;8.90;;;5.47;;
27375;SDS011;14844;51.302;6.354;2023-11-19T00:02:36;7.65;;;5.30;;
27375;SDS011;14844;51.302;6.354;2023-11-19T00:05:01;8.15;;;5.20;;
27375;SDS011;14844;51.302;6.354;2023-11-19T00:07:27;8.65;;;5.57;;
27375;SDS011;14844;51.302;6.354;2023-11-19T00:09:53;8.40;;;5.55;;
27375;SDS011;14844;51.302;6.354;2023-11-19T00:12:20;7.78;;;5.78;;
27375;SDS011;14844;51.302;6.354;2023-11-19T00:14:45;13.85;;;6.18;;
27375;SDS011;14844;51.302;6.354;2023-11-19T00:17:11;7.22;;;6.07;;
27375;SDS011;14844;51.302;6.354;2023-11-19T00:19:37;7.53;;;6.07;;
27375;SDS011;14844;51.302;6.354;2023-11-19T00:22:02;8.57;;;6.53;;
27375;SDS011;14844;51.302;6.354;2023-11-19T00:24:29;11.27;;;7.03;;
27375;SDS011;14844;51.302;6.354;2023-11-19T00:30:18;13.73;;;8.77;;
27375;SDS011;14844;51.302;6.354;2023-11-19T00:32:44;18.17;;;8.20;;
27375;SDS011;14844;51.302;6.354;2023-11-19T00:35:10;12.45;;;9.10;;
27375;SDS011;14844;51.302;6.354;2023-11-19T00:37:37;13.25;;;9.90;;
27375;SDS011;14844;51.302;6.354;2023-11-19T00:40:03;16.67;;;10.85;;
27375;SDS011;14844;51.302;6.354;2023-11-19T00:42:30;12.43;;;9.15;;
27375;SDS011;14844;51.302;6.354;2023-11-19T00:44:56;14.10;;;9.05;;
27375;SDS011;14844;51.302;6.354;2023-11-19T00:47:22;14.13;;;9.85;;
27375;SDS011;14844;51.302;6.354;2023-11-19T00:49:48;14.15;;;9.00;;
27375;SDS011;14844;51.302;6.354;2023-11-19T00:52:15;11.95;;;8.38;;
27375;SDS011;14844;51.302;6.354;2023-11-19T00:54:41;10.85;;;6.90;;
27375;SDS011;14844;51.302;6.354;2023-11-19T00:57:06;11.75;;;8.27;;
27375;SDS011;14844;51.302;6.354;2023-11-19T00:59:32;8.60;;;7.43;;
27375;SDS011;14844;51.302;6.354;2023-11-19T01:01:58;12.40;;;6.88;;
27375;SDS011;14844;51.302;6.354;2023-11-19T01:04:28;7.85;;;6.57;;
27375;SDS011;14844;51.302;6.354;2023-11-19T01:06:54;10.18;;;7.22;;
27375;SDS011;14844;51.302;6.354;2023-11-19T01:09:19;10.88;;;7.32;;
27375;SDS011;14844;51.302;6.354;2023-11-19T01:11:45;8.35;;;6.40;;
27375;SDS011;14844;51.302;6.354;2023-11-19T01:14:10;9.55;;;6.78;;
27375;SDS011;14844;51.302;6.354;2023-11-19T01:16:36;9.55;;;7.20;;
27375;SDS011;14844;51.302;6.354;2023-11-19T01:19:01;9.13;;;7.55;;
27375;SDS011;14844;51.302;6.354;2023-11-19T01:21:29;10.65;;;7.10;;
27375;SDS011;14844;51.302;6.354;2023-11-19T01:23:55;10.90;;;7.15;;
27375;SDS011;14844;51.302;6.354;2023-11-19T01:26:22;11.65;;;6.90;;
27375;SDS011;14844;51.302;6.354;2023-11-19T01:28:48;13.23;;;6.28;;
27375;SDS011;14844;51.302;6.354;2023-11-19T01:31:16;7.78;;;5.60;;
27375;SDS011;14844;51.302;6.354;2023-11-19T01:33:42;9.27;;;5.47;;
27375;SDS011;14844;51.302;6.354;2023-11-19T01:36:08;9.40;;;5.22;;
27375;SDS011;14844;51.302;6.354;2023-11-19T01:38:34;8.88;;;5.60;;
27375;SDS011;14844;51.302;6.354;2023-11-19T01:41:01;11.55;;;5.57;;
27375;SDS011;14844;51.302;6.354;2023-11-19T01:43:34;10.40;;;5.75;;
27375;SDS011;14844;51.302;6.354;2023-11-19T01:46:02;12.25;;;6.03;;
27375;SDS011;14844;51.302;6.354;2023-11-19T01:48:29;11.32;;;5.70;;
27375;SDS011;14844;51.302;6.354;2023-11-19T01:50:57;14.07;;;5.40;;
27375;SDS011;14844;51.302;6.354;2023-11-19T01:53:24;10.35;;;5.45;;
27375;SDS011;14844;51.302;6.354;2023-11-19T01:55:50;12.68;;;5.00;;
27375;SDS011;14844;51.302;6.354;2023-11-19T01:58:17;16.85;;;4.82;;
27375;SDS011;14844;51.302;6.354;2023-11-19T02:00:44;12.00;;;5.15;;
27375;SDS011;14844;51.302;6.354;2023-11-19T02:03:09;10.82;;;4.68;;
27375;SDS011;14844;51.302;6.354;2023-11-19T02:05:36;15.27;;;5.15;;
27375;SDS011;14844;51.302;6.354;2023-11-19T02:08:03;18.38;;;5.60;;
27375;SDS011;14844;51.302;6.354;2023-11-19T02:10:29;10.52;;;4.75;;
27375;SDS011;14844;51.302;6.354;2023-11-19T02:12:57;10.15;;;4.28;;
27375;SDS011;14844;51.302;6.354;2023-11-19T02:15:23;14.95;;;4.60;;
27375;SDS011;14844;51.302;6.354;2023-11-19T02:17:50;13.27;;;4.00;;
27375;SDS011;14844;51.302;6.354;2023-11-19T02:20:16;16.88;;;4.93;;
27375;SDS011;14844;51.302;6.354;2023-11-19T02:22:44;13.38;;;4.35;;
27375;SDS011;14844;51.302;6.354;2023-11-19T02:25:25;18.13;;;4.88;;
27375;SDS011;14844;51.302;6.354;2023-11-19T02:28:01;18.33;;;5.05;;
27375;SDS011;14844;51.302;6.354;2023-11-19T02:30:28;15.30;;;4.72;;
27375;SDS011;14844;51.302;6.354;2023-11-19T02:32:54;23.35;;;5.43;;
27375;SDS011;14844;51.302;6.354;2023-11-19T02:35:25;22.48;;;5.65;;
27375;SDS011;14844;51.302;6.354;2023-11-19T02:37:51;15.63;;;5.07;;
27375;SDS011;14844;51.302;6.354;2023-11-19T02:40:17;25.60;;;5.93;;
27375;SDS011;14844;51.302;6.354;2023-11-19T02:42:43;29.98;;;5.95;;
27375;SDS011;14844;51.302;6.354;2023-11-19T02:45:09;19.58;;;5.53;;
27375;SDS011;14844;51.302;6.354;2023-11-19T02:47:40;24.33;;;5.05;;
27375;SDS011;14844;51.302;6.354;2023-11-19T02:50:12;19.23;;;5.50;;
27375;SDS011;14844;51.302;6.354;2023-11-19T02:55:08;23.02;;;4.70;;
27375;SDS011;14844;51.302;6.354;2023-11-19T02:57:37;21.63;;;5.00;;
27375;SDS011;14844;51.302;6.354;2023-11-19T03:00:16;27.25;;;5.03;;
27375;SDS011;14844;51.302;6.354;2023-11-19T03:02:43;25.48;;;4.68;;
27375;SDS011;14844;51.302;6.354;2023-11-19T03:05:11;30.13;;;4.93;;
27375;SDS011;14844;51.302;6.354;2023-11-19T03:07:44;23.90;;;4.43;;
27375;SDS011;14844;51.302;6.354;2023-11-19T03:10:18;26.65;;;4.53;;
27375;SDS011;14844;51.302;6.354;2023-11-19T03:17:00;29.23;;;5.13;;
27375;SDS011;14844;51.302;6.354;2023-11-19T03:19:57;23.67;;;4.20;;
27375;SDS011;14844;51.302;6.354;2023-11-19T03:22:52;25.05;;;4.60;;
27375;SDS011;14844;51.302;6.354;2023-11-19T03:25:18;30.27;;;5.60;;
27375;SDS011;14844;51.302;6.354;2023-11-19T03:27:43;20.02;;;4.07;;
27375;SDS011;14844;51.302;6.354;2023-11-19T03:30:09;28.65;;;4.30;;
27375;SDS011;14844;51.302;6.354;2023-11-19T03:32:36;23.58;;;4.22;;
27375;SDS011;14844;51.302;6.354;2023-11-19T03:35:02;30.20;;;4.63;;
27375;SDS011;14844;51.302;6.354;2023-11-19T03:37:29;31.17;;;5.88;;
27375;SDS011;14844;51.302;6.354;2023-11-19T03:39:57;31.75;;;4.55;;
27375;SDS011;14844;51.302;6.354;2023-11-19T03:42:28;36.28;;;5.22;;
27375;SDS011;14844;51.302;6.354;2023-11-19T03:44:55;29.98;;;5.47;;
27375;SDS011;14844;51.302;6.354;2023-11-19T03:47:21;26.48;;;4.07;;
27375;SDS011;14844;51.302;6.354;2023-11-19T03:49:50;27.35;;;5.25;;
27375;SDS011;14844;51.302;6.354;2023-11-19T03:52:16;29.00;;;4.25;;
27375;SDS011;14844;51.302;6.354;2023-11-19T03:54:42;33.72;;;4.78;;
27375;SDS011;14844;51.302;6.354;2023-11-19T03:57:08;34.40;;;5.00;;
27375;SDS011;14844;51.302;6.354;2023-11-19T03:59:35;26.23;;;5.18;;
27375;SDS011;14844;51.302;6.354;2023-11-19T04:02:01;33.88;;;5.32;;
27375;SDS011;14844;51.302;6.354;2023-11-19T04:04:27;32.95;;;5.22;;
27375;SDS011;14844;51.302;6.354;2023-11-19T04:06:54;35.35;;;5.45;;
27375;SDS011;14844;51.302;6.354;2023-11-19T04:09:20;43.17;;;5.85;;
27375;SDS011;14844;51.302;6.354;2023-11-19T04:11:46;32.10;;;5.28;;
27375;SDS011;14844;51.302;6.354;2023-11-19T04:14:12;42.95;;;5.82;;
27375;SDS011;14844;51.302;6.354;2023-11-19T04:16:38;44.00;;;5.70;;
27375;SDS011;14844;51.302;6.354;2023-11-19T04:19:04;29.38;;;5.07;;
27375;SDS011;14844;51.302;6.354;2023-11-19T04:21:31;39.80;;;6.00;;
27375;SDS011;14844;51.302;6.354;2023-11-19T04:23:57;40.83;;;5.30;;
27375;SDS011;14844;51.302;6.354;2023-11-19T04:26:22;31.27;;;5.18;;
27375;SDS011;14844;51.302;6.354;2023-11-19T04:28:48;32.40;;;5.55;;
27375;SDS011;14844;51.302;6.354;2023-11-19T04:31:14;40.90;;;6.22;;
27375;SDS011;14844;51.302;6.354;2023-11-19T04:33:41;42.03;;;6.18;;
27375;SDS011;14844;51.302;6.354;2023-11-19T04:36:10;33.90;;;4.75;;
27375;SDS011;14844;51.302;6.354;2023-11-19T04:38:36;36.72;;;4.72;;
27375;SDS011;14844;51.302;6.354;2023-11-19T04:41:03;28.90;;;4.47;;
27375;SDS011;14844;51.302;6.354;2023-11-19T04:43:30;35.90;;;4.95;;
27375;SDS011;14844;51.302;6.354;2023-11-19T04:45:56;30.63;;;4.38;;
27375;SDS011;14844;51.302;6.354;2023-11-19T04:48:22;37.55;;;5.07;;
27375;SDS011;14844;51.302;6.354;2023-11-19T04:50:48;33.05;;;4.97;;
27375;SDS011;14844;51.302;6.354;2023-11-19T04:53:16;33.47;;;4.80;;
27375;SDS011;14844;51.302;6.354;2023-11-19T04:55:42;37.88;;;4.85;;
27375;SDS011;14844;51.302;6.354;2023-11-19T04:58:08;41.10;;;5.72;;
27375;SDS011;14844;51.302;6.354;2023-11-19T05:00:34;32.40;;;4.75;;
27375;SDS011;14844;51.302;6.354;2023-11-19T05:02:59;30.92;;;5.18;;
27375;SDS011;14844;51.302;6.354;2023-11-19T05:05:25;33.78;;;4.70;;
27375;SDS011;14844;51.302;6.354;2023-11-19T05:07:50;33.35;;;4.78;;
27375;SDS011;14844;51.302;6.354;2023-11-19T05:10:16;30.70;;;4.63;;
27375;SDS011;14844;51.302;6.354;2023-11-19T05:12:42;25.92;;;4.50;;
27375;SDS011;14844;51.302;6.354;2023-11-19T05:15:07;33.83;;;5.07;;
27375;SDS011;14844;51.302;6.354;2023-11-19T05:17:33;31.85;;;5.35;;
27375;SDS011;14844;51.302;6.354;2023-11-19T05:19:59;29.52;;;4.80;;
27375;SDS011;14844;51.302;6.354;2023-11-19T05:22:24;38.55;;;5.60;;
27375;SDS011;14844;51.302;6.354;2023-11-19T05:24:51;39.28;;;4.93;;
27375;SDS011;14844;51.302;6.354;2023-11-19T05:27:17;42.88;;;5.72;;
27375;SDS011;14844;51.302;6.354;2023-11-19T05:29:42;35.20;;;5.90;;
27375;SDS011;14844;51.302;6.354;2023-11-19T05:32:08;30.65;;;5.53;;
27375;SDS011;14844;51.302;6.354;2023-11-19T05:34:34;37.13;;;6.10;;
27375;SDS011;14844;51.302;6.354;2023-11-19T05:37:00;34.20;;;5.53;;
27375;SDS011;14844;51.302;6.354;2023-11-19T05:39:25;37.38;;;6.35;;
27375;SDS011;14844;51.302;6.354;2023-11-19T05:41:52;32.53;;;5.22;;
27375;SDS011;14844;51.302;6.354;2023-11-19T05:44:17;33.17;;;5.43;;
27375;SDS011;14844;51.302;6.354;2023-11-19T05:46:44;33.13;;;5.20;;
27375;SDS011;14844;51.302;6.354;2023-11-19T05:49:10;35.78;;;5.03;;
27375;SDS011;14844;51.302;6.354;2023-11-19T05:51:39;28.00;;;4.85;;
27375;SDS011;14844;51.302;6.354;2023-11-19T05:54:08;30.83;;;4.97;;
27375;SDS011;14844;51.302;6.354;2023-11-19T05:56:54;32.15;;;5.55;;
27375;SDS011;14844;51.302;6.354;2023-11-19T05:59:20;32.97;;;5.45;;
27375;SDS011;14844;51.302;6.354;2023-11-19T06:01:48;36.00;;;5.70;;
27375;SDS011;14844;51.302;6.354;2023-11-19T06:04:14;35.80;;;5.30;;
27375;SDS011;14844;51.302;6.354;2023-11-19T06:06:41;39.78;;;6.60;;
27375;SDS011;14844;51.302;6.354;2023-11-19T06:09:06;37.92;;;5.63;;
27375;SDS011;14844;51.302;6.354;2023-11-19T06:11:33;37.60;;;5.95;;
27375;SDS011;14844;51.302;6.354;2023-11-19T06:14:00;35.85;;;4.90;;
27375;SDS011;14844;51.302;6.354;2023-11-19T06:16:26;36.10;;;5.38;;
27375;SDS011;14844;51.302;6.354;2023-11-19T06:18:52;37.17;;;5.68;;
27375;SDS011;14844;51.302;6.354;2023-11-19T06:21:18;33.40;;;5.32;;
27375;SDS011;14844;51.302;6.354;2023-11-19T06:23:44;29.20;;;4.85;;
27375;SDS011;14844;51.302;6.354;2023-11-19T06:26:09;33.22;;;5.43;;
27375;SDS011;14844;51.302;6.354;2023-11-19T06:28:35;31.58;;;4.80;;
27375;SDS011;14844;51.302;6.354;2023-11-19T06:31:01;37.10;;;5.47;;
27375;SDS011;14844;51.302;6.354;2023-11-19T06:33:28;38.72;;;5.38;;
27375;SDS011;14844;51.302;6.354;2023-11-19T06:35:53;33.83;;;5.22;;
27375;SDS011;14844;51.302;6.354;2023-11-19T06:38:19;32.47;;;5.80;;
27375;SDS011;14844;51.302;6.354;2023-11-19T06:40:45;36.35;;;5.68;;
27375;SDS011;14844;51.302;6.354;2023-11-19T06:43:10;36.67;;;5.60;;
27375;SDS011;14844;51.302;6.354;2023-11-19T06:45:36;33.22;;;5.63;;
27375;SDS011;14844;51.302;6.354;2023-11-19T06:48:02;36.45;;;5.63;;
27375;SDS011;14844;51.302;6.354;2023-11-19T06:50:31;38.45;;;5.78;;
27375;SDS011;14844;51.302;6.354;2023-11-19T06:52:57;39.90;;;6.47;;
27375;SDS011;14844;51.302;6.354;2023-11-19T06:55:22;32.45;;;5.40;;
27375;SDS011;14844;51.302;6.354;2023-11-19T06:57:48;43.15;;;5.55;;
27375;SDS011;14844;51.302;6.354;2023-11-19T07:00:13;36.33;;;5.40;;
27375;SDS011;14844;51.302;6.354;2023-11-19T07:02:39;39.40;;;5.95;;
27375;SDS011;14844;51.302;6.354;2023-11-19T07:05:05;35.58;;;5.43;;
27375;SDS011;14844;51.302;6.354;2023-11-19T07:07:31;36.20;;;5.82;;
27375;SDS011;14844;51.302;6.354;2023-11-19T07:09:57;35.42;;;5.97;;
27375;SDS011;14844;51.302;6.354;2023-11-19T07:12:23;36.17;;;5.82;;
27375;SDS011;14844;51.302;6.354;2023-11-19T07:14:51;40.30;;;5.57;;
27375;SDS011;14844;51.302;6.354;2023-11-19T07:17:18;29.02;;;5.22;;
27375;SDS011;14844;51.302;6.354;2023-11-19T07:19:45;47.45;;;5.95;;
27375;SDS011;14844;51.302;6.354;2023-11-19T07:22:11;35.10;;;5.30;;
27375;SDS011;14844;51.302;6.354;2023-11-19T07:24:38;41.15;;;6.38;;
27375;SDS011;14844;51.302;6.354;2023-11-19T07:27:05;40.35;;;6.60;;
27375;SDS011;14844;51.302;6.354;2023-11-19T07:29:31;37.63;;;6.03;;
27375;SDS011;14844;51.302;6.354;2023-11-19T07:31:57;47.55;;;6.13;;
27375;SDS011;14844;51.302;6.354;2023-11-19T07:34:23;36.40;;;5.80;;
27375;SDS011;14844;51.302;6.354;2023-11-19T07:36:52;31.08;;;5.97;;
27375;SDS011;14844;51.302;6.354;2023-11-19T07:39:27;36.53;;;6.00;;
27375;SDS011;14844;51.302;6.354;2023-11-19T07:41:52;38.42;;;6.45;;
27375;SDS011;14844;51.302;6.354;2023-11-19T07:44:24;44.97;;;6.38;;
27375;SDS011;14844;51.302;6.354;2023-11-19T07:47:01;47.30;;;5.95;;
27375;SDS011;14844;51.302;6.354;2023-11-19T07:49:26;41.03;;;6.03;;
27375;SDS011;14844;51.302;6.354;2023-11-19T07:51:52;46.03;;;5.88;;
27375;SDS011;14844;51.302;6.354;2023-11-19T07:54:17;38.95;;;6.28;;
27375;SDS011;14844;51.302;6.354;2023-11-19T07:56:43;34.80;;;5.95;;
27375;SDS011;14844;51.302;6.354;2023-11-19T07:59:08;41.78;;;6.68;;
27375;SDS011;14844;51.302;6.354;2023-11-19T08:01:34;40.88;;;6.35;;
27375;SDS011;14844;51.302;6.354;2023-11-19T08:04:00;44.22;;;6.30;;
27375;SDS011;14844;51.302;6.354;2023-11-19T08:06:26;35.92;;;6.28;;
27375;SDS011;14844;51.302;6.354;2023-11-19T08:08:52;42.85;;;6.15;;
27375;SDS011;14844;51.302;6.354;2023-11-19T08:11:18;35.72;;;5.88;;
27375;SDS011;14844;51.302;6.354;2023-11-19T08:13:44;39.97;;;6.85;;
27375;SDS011;14844;51.302;6.354;2023-11-19T08:16:10;40.45;;;6.55;;
27375;SDS011;14844;51.302;6.354;2023-11-19T08:18:36;38.10;;;5.80;;
27375;SDS011;14844;51.302;6.354;2023-11-19T08:21:02;33.75;;;6.38;;
27375;SDS011;14844;51.302;6.354;2023-11-19T08:23:29;42.03;;;6.25;;
27375;SDS011;14844;51.302;6.354;2023-11-19T08:25:55;39.00;;;6.78;;
27375;SDS011;14844;51.302;6.354;2023-11-19T08:28:21;38.20;;;5.95;;
27375;SDS011;14844;51.302;6.354;2023-11-19T08:30:46;41.95;;;5.93;;
27375;SDS011;14844;51.302;6.354;2023-11-19T08:33:12;42.50;;;6.72;;
27375;SDS011;14844;51.302;6.354;2023-11-19T08:35:37;35.45;;;5.57;;
27375;SDS011;14844;51.302;6.354;2023-11-19T08:38:03;40.10;;;6.90;;
27375;SDS011;14844;51.302;6.354;2023-11-19T08:40:28;41.90;;;7.95;;
27375;SDS011;14844;51.302;6.354;2023-11-19T08:42:55;33.10;;;5.85;;
27375;SDS011;14844;51.302;6.354;2023-11-19T08:45:21;33.85;;;5.40;;
27375;SDS011;14844;51.302;6.354;2023-11-19T08:47:47;36.30;;;6.65;;
27375;SDS011;14844;51.302;6.354;2023-11-19T08:50:12;33.95;;;5.43;;
27375;SDS011;14844;51.302;6.354;2023-11-19T08:52:38;32.53;;;5.20;;
27375;SDS011;14844;51.302;6.354;2023-11-19T08:55:04;37.65;;;5.65;;
27375;SDS011;14844;51.302;6.354;2023-11-19T08:57:34;35.47;;;6.00;;
27375;SDS011;14844;51.302;6.354;2023-11-19T09:00:00;34.47;;;6.38;;
27375;SDS011;14844;51.302;6.354;2023-11-19T09:02:26;38.63;;;5.97;;
27375;SDS011;14844;51.302;6.354;2023-11-19T09:04:51;39.00;;;6.13;;
27375;SDS011;14844;51.302;6.354;2023-11-19T09:07:17;38.92;;;6.40;;
27375;SDS011;14844;51.302;6.354;2023-11-19T09:09:42;35.63;;;5.93;;
27375;SDS011;14844;51.302;6.354;2023-11-19T09:12:08;38.95;;;6.18;;
27375;SDS011;14844;51.302;6.354;2023-11-19T09:14:33;37.60;;;6.18;;
27375;SDS011;14844;51.302;6.354;2023-11-19T09:16:59;41.65;;;6.32;;
27375;SDS011;14844;51.302;6.354;2023-11-19T09:19:25;41.28;;;6.30;;
27375;SDS011;14844;51.302;6.354;2023-11-19T09:21:54;38.63;;;5.93;;
27375;SDS011;14844;51.302;6.354;2023-11-19T09:24:19;39.78;;;6.93;;
27375;SDS011;14844;51.302;6.354;2023-11-19T09:26:48;42.35;;;6.63;;
27375;SDS011;14844;51.302;6.354;2023-11-19T09:29:13;39.08;;;6.57;;
27375;SDS011;14844;51.302;6.354;2023-11-19T09:31:41;37.47;;;6.03;;
27375;SDS011;14844;51.302;6.354;2023-11-19T09:34:07;38.17;;;6.13;;
27375;SDS011;14844;51.302;6.354;2023-11-19T09:36:33;38.03;;;6.45;;
27375;SDS011;14844;51.302;6.354;2023-11-19T09:38:58;42.05;;;7.47;;
27375;SDS011;14844;51.302;6.354;2023-11-19T09:41:26;39.80;;;6.15;;
27375;SDS011;14844;51.302;6.354;2023-11-19T09:43:53;34.55;;;5.47;;
27375;SDS011;14844;51.302;6.354;2023-11-19T09:46:18;36.13;;;6.75;;
27375;SDS011;14844;51.302;6.354;2023-11-19T09:48:45;37.40;;;6.22;;
27375;SDS011;14844;51.302;6.354;2023-11-19T09:51:13;47.13;;;10.35;;
27375;SDS011;14844;51.302;6.354;2023-11-19T09:53:39;39.45;;;5.97;;
27375;SDS011;14844;51.302;6.354;2023-11-19T09:56:05;34.67;;;6.18;;
27375;SDS011;14844;51.302;6.354;2023-11-19T09:58:31;43.17;;;6.82;;
27375;SDS011;14844;51.302;6.354;2023-11-19T10:00:57;37.40;;;6.50;;
27375;SDS011;14844;51.302;6.354;2023-11-19T10:03:24;35.28;;;6.72;;
27375;SDS011;14844;51.302;6.354;2023-11-19T10:05:51;38.35;;;6.10;;
27375;SDS011;14844;51.302;6.354;2023-11-19T10:08:17;32.50;;;5.95;;
27375;SDS011;14844;51.302;6.354;2023-11-19T10:10:43;39.60;;;6.50;;
27375;SDS011;14844;51.302;6.354;2023-11-19T10:13:09;41.70;;;6.50;;
27375;SDS011;14844;51.302;6.354;2023-11-19T10:15:36;38.28;;;6.28;;
27375;SDS011;14844;51.302;6.354;2023-11-19T10:18:02;38.95;;;6.13;;
27375;SDS011;14844;51.302;6.354;2023-11-19T10:20:35;35.95;;;6.45;;
27375;SDS011;14844;51.302;6.354;2023-11-19T10:25:27;28.05;;;5.63;;
27375;SDS011;14844;51.302;6.354;2023-11-19T10:27:54;34.17;;;5.63;;
27375;SDS011;14844;51.302;6.354;2023-11-19T10:30:21;32.90;;;5.70;;
27375;SDS011;14844;51.302;6.354;2023-11-19T10:35:57;31.85;;;5.90;;
27375;SDS011;14844;51.302;6.354;2023-11-19T10:38:23;38.22;;;6.20;;
27375;SDS011;14844;51.302;6.354;2023-11-19T10:40:50;36.35;;;6.45;;
27375;SDS011;14844;51.302;6.354;2023-11-19T10:43:17;34.70;;;5.90;;
27375;SDS011;14844;51.302;6.354;2023-11-19T10:45:43;36.72;;;5.53;;
27375;SDS011;14844;51.302;6.354;2023-11-19T10:48:09;26.20;;;5.18;;
27375;SDS011;14844;51.302;6.354;2023-11-19T10:50:35;34.70;;;5.45;;
27375;SDS011;14844;51.302;6.354;2023-11-19T10:53:03;29.40;;;5.43;;
27375;SDS011;14844;51.302;6.354;2023-11-19T10:55:33;37.85;;;5.55;;
27375;SDS011;14844;51.302;6.354;2023-11-19T10:58:03;31.02;;;5.32;;
27375;SDS011;14844;51.302;6.354;2023-11-19T11:00:38;34.80;;;5.10;;
27375;SDS011;14844;51.302;6.354;2023-11-19T11:03:16;36.22;;;5.55;;
27375;SDS011;14844;51.302;6.354;2023-11-19T11:05:47;34.90;;;5.72;;
27375;SDS011;14844;51.302;6.354;2023-11-19T11:08:13;32.22;;;6.15;;
27375;SDS011;14844;51.302;6.354;2023-11-19T11:10:42;37.00;;;6.43;;
27375;SDS011;14844;51.302;6.354;2023-11-19T11:13:09;26.17;;;4.63;;
27375;SDS011;14844;51.302;6.354;2023-11-19T11:15:37;30.35;;;5.63;;
27375;SDS011;14844;51.302;6.354;2023-11-19T11:18:03;33.00;;;6.18;;
27375;SDS011;14844;51.302;6.354;2023-11-19T11:20:33;35.53;;;5.60;;
27375;SDS011;14844;51.302;6.354;2023-11-19T11:28:39;28.88;;;5.70;;
27375;SDS011;14844;51.302;6.354;2023-11-19T11:39:40;29.95;;;5.32;;
27375;SDS011;14844;51.302;6.354;2023-11-19T11:50:18;29.92;;;5.35;;
27375;SDS011;14844;51.302;6.354;2023-11-19T11:55:37;23.33;;;4.50;;
27375;SDS011;14844;51.302;6.354;2023-11-19T11:58:20;24.67;;;4.40;;
27375;SDS011;14844;51.302;6.354;2023-11-19T12:00:47;28.05;;;5.05;;
27375;SDS011;14844;51.302;6.354;2023-11-19T12:03:14;28.10;;;4.60;;
27375;SDS011;14844;51.302;6.354;2023-11-19T12:05:46;31.65;;;5.07;;
27375;SDS011;14844;51.302;6.354;2023-11-19T12:08:13;25.65;;;4.55;;
27375;SDS011;14844;51.302;6.354;2023-11-19T12:10:47;26.20;;;4.97;;
27375;SDS011;14844;51.302;6.354;2023-11-19T12:13:14;28.77;;;4.70;;
27375;SDS011;14844;51.302;6.354;2023-11-19T12:18:22;29.95;;;5.13;;
27375;SDS011;14844;51.302;6.354;2023-11-19T12:20:48;31.45;;;5.20;;
27375;SDS011;14844;51.302;6.354;2023-11-19T12:23:14;29.45;;;4.90;;
27375;SDS011;14844;51.302;6.354;2023-11-19T12:25:40;23.77;;;4.70;;
27375;SDS011;14844;51.302;6.354;2023-11-19T12:33:09;39.55;;;5.95;;
27375;SDS011;14844;51.302;6.354;2023-11-19T12:35:40;27.95;;;5.72;;
27375;SDS011;14844;51.302;6.354;2023-11-19T12:45:46;33.55;;;5.25;;
27375;SDS011;14844;51.302;6.354;2023-11-19T12:52:23;28.35;;;4.88;;
27375;SDS011;14844;51.302;6.354;2023-11-19T12:55:53;32.88;;;5.80;;
27375;SDS011;14844;51.302;6.354;2023-11-19T12:59:13;32.33;;;5.35;;
27375;SDS011;14844;51.302;6.354;2023-11-19T13:01:55;33.75;;;5.25;;
27375;SDS011;14844;51.302;6.354;2023-11-19T13:04:22;26.70;;;5.10;;
27375;SDS011;14844;51.302;6.354;2023-11-19T13:06:49;27.38;;;5.07;;
27375;SDS011;14844;51.302;6.354;2023-11-19T13:09:21;29.13;;;4.82;;
27375;SDS011;14844;51.302;6.354;2023-11-19T13:11:53;25.20;;;4.40;;
27375;SDS011;14844;51.302;6.354;2023-11-19T13:14:20;26.38;;;4.78;;
27375;SDS011;14844;51.302;6.354;2023-11-19T13:16:46;37.15;;;5.65;;
27375;SDS011;14844;51.302;6.354;2023-11-19T13:19:12;31.02;;;5.45;;
27375;SDS011;14844;51.302;6.354;2023-11-19T13:21:39;28.23;;;5.57;;
27375;SDS011;14844;51.302;6.354;2023-11-19T13:24:07;26.58;;;5.38;;
27375;SDS011;14844;51.302;6.354;2023-11-19T13:26:33;30.95;;;5.20;;
27375;SDS011;14844;51.302;6.354;2023-11-19T13:29:00;22.17;;;4.55;;
27375;SDS011;14844;51.302;6.354;2023-11-19T13:31:25;23.80;;;4.80;;
27375;SDS011;14844;51.302;6.354;2023-11-19T13:33:51;27.27;;;5.07;;
27375;SDS011;14844;51.302;6.354;2023-11-19T13:36:16;28.95;;;4.53;;
27375;SDS011;14844;51.302;6.354;2023-11-19T13:38:42;25.38;;;5.35;;
27375;SDS011;14844;51.302;6.354;2023-11-19T13:41:09;26.85;;;4.88;;
27375;SDS011;14844;51.302;6.354;2023-11-19T13:43:36;30.17;;;6.57;;
27375;SDS011;14844;51.302;6.354;2023-11-19T13:46:02;32.92;;;7.78;;
27375;SDS011;14844;51.302;6.354;2023-11-19T13:48:28;28.05;;;6.95;;
27375;SDS011;14844;51.302;6.354;2023-11-19T13:50:55;52.28;;;16.42;;
27375;SDS011;14844;51.302;6.354;2023-11-19T13:53:20;39.33;;;9.10;;
27375;SDS011;14844;51.302;6.354;2023-11-19T13:55:46;41.45;;;10.75;;
27375;SDS011;14844;51.302;6.354;2023-11-19T13:58:15;30.38;;;6.85;;
27375;SDS011;14844;51.302;6.354;2023-11-19T14:00:41;36.83;;;11.30;;
27375;SDS011;14844;51.302;6.354;2023-11-19T14:03:07;29.10;;;6.97;;
27375;SDS011;14844;51.302;6.354;2023-11-19T14:05:34;39.92;;;8.93;;
27375;SDS011;14844;51.302;6.354;2023-11-19T14:08:00;33.40;;;10.45;;
27375;SDS011;14844;51.302;6.354;2023-11-19T14:10:26;39.17;;;10.70;;
27375;SDS011;14844;51.302;6.354;2023-11-19T14:12:51;35.22;;;10.10;;
27375;SDS011;14844;51.302;6.354;2023-11-19T14:15:17;39.00;;;8.63;;
27375;SDS011;14844;51.302;6.354;2023-11-19T14:17:43;38.60;;;11.80;;
27375;SDS011;14844;51.302;6.354;2023-11-19T14:20:09;41.80;;;7.40;;
27375;SDS011;14844;51.302;6.354;2023-11-19T14:22:46;40.75;;;6.35;;
27375;SDS011;14844;51.302;6.354;2023-11-19T14:25:14;50.05;;;14.40;;
27375;SDS011;14844;51.302;6.354;2023-11-19T14:27:40;34.28;;;9.70;;
27375;SDS011;14844;51.302;6.354;2023-11-19T14:30:08;44.25;;;11.05;;
27375;SDS011;14844;51.302;6.354;2023-11-19T14:32:41;40.35;;;10.52;;
27375;SDS011;14844;51.302;6.354;2023-11-19T14:35:09;44.05;;;10.07;;
27375;SDS011;14844;51.302;6.354;2023-11-19T14:37:35;40.58;;;7.47;;
27375;SDS011;14844;51.302;6.354;2023-11-19T14:40:01;45.38;;;8.73;;
27375;SDS011;14844;51.302;6.354;2023-11-19T14:42:29;38.00;;;8.98;;
27375;SDS011;14844;51.302;6.354;2023-11-19T14:44:55;38.45;;;6.60;;
27375;SDS011;14844;51.302;6.354;2023-11-19T14:47:21;41.28;;;5.88;;
27375;SDS011;14844;51.302;6.354;2023-11-19T14:49:47;34.63;;;5.43;;
27375;SDS011;14844;51.302;6.354;2023-11-19T14:52:12;35.15;;;5.10;;
27375;SDS011;14844;51.302;6.354;2023-11-19T14:54:38;37.58;;;5.20;;
27375;SDS011;14844;51.302;6.354;2023-11-19T14:57:04;31.83;;;4.78;;
27375;SDS011;14844;51.302;6.354;2023-11-19T14:59:33;32.72;;;5.20;;
27375;SDS011;14844;51.302;6.354;2023-11-19T15:01:59;28.70;;;5.10;;
27375;SDS011;14844;51.302;6.354;2023-11-19T15:04:25;38.80;;;5.45;;
27375;SDS011;14844;51.302;6.354;2023-11-19T15:06:51;33.72;;;5.05;;
27375;SDS011;14844;51.302;6.354;2023-11-19T15:09:17;32.92;;;4.85;;
27375;SDS011;14844;51.302;6.354;2023-11-19T15:11:46;35.58;;;5.30;;
27375;SDS011;14844;51.302;6.354;2023-11-19T15:14:15;31.75;;;5.50;;
27375;SDS011;14844;51.302;6.354;2023-11-19T15:16:43;32.55;;;5.53;;
27375;SDS011;14844;51.302;6.354;2023-11-19T15:19:10;38.47;;;6.05;;
27375;SDS011;14844;51.302;6.354;2023-11-19T15:21:37;32.63;;;5.57;;
27375;SDS011;14844;51.302;6.354;2023-11-19T15:24:03;29.85;;;5.43;;
27375;SDS011;14844;51.302;6.354;2023-11-19T15:26:32;37.88;;;5.45;;
27375;SDS011;14844;51.302;6.354;2023-11-19T15:28:58;38.55;;;5.47;;
27375;SDS011;14844;51.302;6.354;2023-11-19T15:31:24;36.47;;;5.47;;
27375;SDS011;14844;51.302;6.354;2023-11-19T15:33:50;35.40;;;5.53;;
27375;SDS011;14844;51.302;6.354;2023-11-19T15:36:16;35.42;;;5.82;;